Ariadne — 5BSE4 — position and weather

sailwx.info

Track history (hours):
 
Tides and Currents Weather Stations Pressure Air Temp Water Temp Dewpoint Dewpoint Depression Visibility Wind Speed Wind Dir Waves Ship Positions

Ariadne

Last reported at 2018-Jul-02 12:06 UTC. Time now 2018-Jul-17 14:55 UTC.
Position N 54°36' W 000°25'.
Warning: this ship's position is 15 days out of date.

Length 130 m; draft 6.5 m.

Type: Other ship. MMSI: 210594000.

Date/timePositionNaut miles runAvg speedWind from/ knotsBaromVisibWave heightAir tempDewpointWater temp
2018-Jul-02 12:06N 54°36' W 000°25'1 6.9
2018-Jul-02 12:00N 54°36' W 000°24'4 7.1
2018-Jul-02 11:30N 54°34' W 000°18'4 7.2
2018-Jul-02 11:00N 54°32' W 000°13'4 8.6
2018-Jul-02 10:30N 54°30' W 000°07'5 8.3
2018-Jul-02 09:57N 54°28' E 000°00'4 7.8
2018-Jul-02 09:30N 54°26' E 000°06'4 8.3
2018-Jul-02 09:00N 54°24' E 000°12'27 9.8
2018-Jul-02 06:15N 54°11' E 000°53'311.1
2018-Jul-02 06:01N 54°10' E 000°57'611.2
2018-Jul-02 05:30N 54°07' E 001°05'611.5
2018-Jul-02 05:00N 54°04' E 001°14'611.6
2018-Jul-02 04:30N 54°01' E 001°22'611.9
2018-Jul-02 04:00N 53°56' E 001°27'612.2
2018-Jul-02 03:30N 53°51' E 001°33'612.4
2018-Jul-02 03:00N 53°46' E 001°38'612.1
2018-Jul-02 02:30N 53°43' E 001°48'712.5
2018-Jul-02 01:57N 53°42' E 001°59'612.3
2018-Jul-02 01:30N 53°40' E 002°08'712.2
2018-Jul-02 00:57N 53°38' E 002°19'511.7
2018-Jul-02 00:30N 53°36' E 002°27'611.4
2018-Jul-02 00:00N 53°33' E 002°34'611.1
2018-Jul-01 23:30N 53°30' E 002°42'610.9
2018-Jul-01 23:00N 53°26' E 002°50'510.1
2018-Jul-01 22:30N 53°22' E 002°55'510.2
2018-Jul-01 22:00N 53°18' E 002°51'510.5
2018-Jul-01 21:30N 53°14' E 002°46'510.7
2018-Jul-01 21:00N 53°09' E 002°41'510.5
2018-Jul-01 20:30N 53°04' E 002°39'611.1
2018-Jul-01 20:00N 52°59' E 002°40'611.7
2018-Jul-01 19:30N 52°53' E 002°40'612.1
2018-Jul-01 19:00N 52°47' E 002°40'612.4
2018-Jul-01 18:30N 52°41' E 002°40'612.8
2018-Jul-01 18:00N 52°34' E 002°40'713.0
2018-Jul-01 17:30N 52°28' E 002°40'713.2
2018-Jul-01 17:00N 52°21' E 002°39'713.2
2018-Jul-01 16:30N 52°15' E 002°39'713.1
2018-Jul-01 16:00N 52°08' E 002°38'713.1
2018-Jul-01 15:30N 52°02' E 002°37'612.7
2018-Jul-01 15:00N 51°55' E 002°37'612.5
2018-Jul-01 14:30N 51°49' E 002°36'611.8
2018-Jul-01 14:00N 51°43' E 002°33'611.9
2018-Jul-01 13:30N 51°39' E 002°26'611.7
2018-Jul-01 13:00N 51°35' E 002°20'611.2
2018-Jul-01 12:30N 51°31' E 002°14'510.8
2018-Jul-01 12:00N 51°27' E 002°08'510.4
2018-Jul-01 11:30N 51°23' E 002°02'5 9.9
2018-Jul-01 11:00N 51°19' E 001°57'5 9.1
2018-Jul-01 10:30N 51°15' E 001°53'4 8.6
2018-Jul-01 10:00N 51°12' E 001°48'4 8.1
2018-Jul-01 09:30N 51°09' E 001°44'4 8.1
2018-Jul-01 09:00N 51°06' E 001°40'5 8.3
2018-Jul-01 08:26N 51°02' E 001°35'4 8.7
2018-Jul-01 08:00N 50°59' E 001°32'4 8.9
2018-Jul-01 07:30N 50°56' E 001°28'5 9.1
2018-Jul-01 07:00N 50°51' E 001°26'5 9.9
2018-Jul-01 06:30N 50°46' E 001°24'510.1
2018-Jul-01 06:00N 50°42' E 001°21'510.4
2018-Jul-01 05:30N 50°38' E 001°15'510.8
2018-Jul-01 05:00N 50°35' E 001°09'610.7
2018-Jul-01 04:24N 50°31' E 001°01'410.6
2018-Jul-01 04:00N 50°29' E 000°55'2710.8
2018-Jul-01 01:31N 50°20' E 000°15'110.9
2018-Jul-01 01:26N 50°20' E 000°14'511.2
2018-Jul-01 01:00N 50°19' E 000°06'1011.7
2018-Jul-01 00:12N 50°16' W 000°08'512.3
2018-Jun-30 23:49N 50°15' W 000°15'412.8
2018-Jun-30 23:30N 50°13' W 000°21'913.3
2018-Jun-30 22:48N 50°11' W 000°35'513.7
2018-Jun-30 22:26N 50°10' W 000°42'614.0
2018-Jun-30 22:00N 50°09' W 000°52'713.9
2018-Jun-30 21:30N 50°07' W 001°02'814.1
2018-Jun-30 20:58N 50°05' W 001°14'814.0
2018-Jun-30 20:24N 50°03' W 001°26'513.7
2018-Jun-30 20:00N 50°02' W 001°34'1512.9
2018-Jun-30 18:51N 49°59' W 001°57'412.0
2018-Jun-30 18:30N 49°58' W 002°03'711.4
2018-Jun-30 17:55N 49°56' W 002°13'410.6
2018-Jun-30 17:30N 49°55' W 002°20'610.0
2018-Jun-30 16:55N 49°53' W 002°28'6 9.5
2018-Jun-30 16:18N 49°52' W 002°37'3 9.1
2018-Jun-30 15:59N 49°51' W 002°41'150 9.0
2018-Jun-29 23:16N 48°07' W 005°26'310.8
2018-Jun-29 23:00N 48°04' W 005°24'16 9.8
2018-Jun-29 21:22N 47°52' W 005°09'710.6
2018-Jun-29 20:40N 47°48' W 004°59'5510.1
2018-Jun-29 15:12N 47°21' W 003°48'210.0
2018-Jun-29 15:00N 47°20' W 003°45'510.3
2018-Jun-29 14:30N 47°18' W 003°39'910.4
2018-Jun-29 13:38N 47°13' W 003°27'110.3
2018-Jun-29 13:30N 47°13' W 003°25'41 9.5
2018-Jun-29 09:14N 47°05' W 002°27'2 9.5
2018-Jun-29 09:00N 47°06' W 002°24'4 7.5
2018-Jun-29 08:30N 47°09' W 002°20'612.3
2018-Jun-29 08:00N 47°14' W 002°16'610.5
2018-Jun-29 07:28N 47°18' W 002°09'0 0.0
2018-Jun-29 06:41N 47°18' W 002°09'0 0.0
2018-Jun-29 06:25N 47°18' W 002°09'0 0.0
2018-Jun-29 05:58N 47°18' W 002°09'0 0.0
2018-Jun-29 04:31N 47°18' W 002°09'0 0.0
2018-Jun-29 04:25N 47°18' W 002°09'0 0.0
2018-Jun-29 03:43N 47°18' W 002°09'0 0.0
2018-Jun-29 01:34N 47°18' W 002°09'0 0.0
2018-Jun-29 01:28N 47°18' W 002°09'0 0.0
2018-Jun-29 00:55N 47°18' W 002°09'0 0.0
2018-Jun-29 00:28N 47°18' W 002°09'0 0.0
2018-Jun-28 23:58N 47°18' W 002°09'0 0.0
2018-Jun-28 23:25N 47°18' W 002°09'0 0.0
2018-Jun-28 22:58N 47°18' W 002°09'0 0.0
2018-Jun-28 22:10N 47°18' W 002°09'0 0.0
2018-Jun-28 21:28N 47°18' W 002°09'0 0.0
2018-Jun-28 05:46N 47°18' W 002°09'0 0.0
2018-Jun-28 05:16N 47°18' W 002°09'0 0.0
2018-Jun-28 04:46N 47°18' W 002°09'0 0.0
2018-Jun-28 04:22N 47°18' W 002°09'0 0.0
2018-Jun-28 03:58N 47°18' W 002°09'0 0.0
2018-Jun-28 03:16N 47°18' W 002°09'0 0.0
2018-Jun-28 02:49N 47°18' W 002°09'0 0.0
2018-Jun-28 01:19N 47°18' W 002°09'0 0.0
2018-Jun-28 00:52N 47°18' W 002°09'0 0.0
2018-Jun-28 00:28N 47°18' W 002°09'0 0.0
2018-Jun-27 23:52N 47°18' W 002°09'0 0.0
2018-Jun-27 23:28N 47°18' W 002°09'0 0.0
2018-Jun-27 22:52N 47°18' W 002°09'0 0.0
2018-Jun-27 22:28N 47°18' W 002°09'0 0.0
2018-Jun-27 21:58N 47°18' W 002°09'0 0.0
2018-Jun-27 21:28N 47°18' W 002°09'0 0.0
2018-Jun-27 20:58N 47°18' W 002°09'0 0.0
2018-Jun-27 20:28N 47°18' W 002°09'0 0.0
2018-Jun-27 19:58N 47°18' W 002°09'0 0.0
2018-Jun-27 18:58N 47°18' W 002°09'0 0.0
2018-Jun-27 18:28N 47°18' W 002°09'0 0.0
2018-Jun-27 16:14N 47°18' W 002°09'0 0.3
2018-Jun-27 15:58N 47°18' W 002°10'2 4.7
2018-Jun-27 15:29N 47°16' W 002°12'611.0
2018-Jun-27 14:57N 47°12' W 002°18'11 8.3
2018-Jun-27 13:39N 47°05' W 002°30'3 7.8
2018-Jun-27 13:20N 47°05' W 002°34'3 7.4
2018-Jun-27 12:57N 47°06' W 002°38'3 6.2
2018-Jun-27 12:30N 47°06' W 002°42'3 5.7
2018-Jun-27 12:00N 47°08' W 002°45'3 5.8
2018-Jun-27 11:30N 47°11' W 002°47'3 5.7
2018-Jun-27 11:00N 47°13' W 002°48'1 2.3
2018-Jun-27 10:30N 47°14' W 002°47'0 0.1
2018-Jun-27 10:00N 47°14' W 002°47'0 0.4
2018-Jun-27 09:30N 47°14' W 002°47'0 0.2
2018-Jun-27 08:58N 47°14' W 002°47'0 0.2
2018-Jun-27 08:30N 47°14' W 002°47'0 0.0
2018-Jun-27 07:59N 47°14' W 002°47'0 0.0
2018-Jun-27 07:30N 47°14' W 002°47'0 0.1
2018-Jun-27 07:00N 47°14' W 002°47'0 0.0
2018-Jun-27 06:30N 47°14' W 002°47'0 0.0
2018-Jun-27 06:01N 47°14' W 002°47'0 0.0
2018-Jun-27 05:30N 47°14' W 002°47'0 0.0
2018-Jun-27 05:01N 47°14' W 002°47'0 0.0
2018-Jun-27 04:30N 47°14' W 002°47'0 0.0
2018-Jun-27 04:00N 47°14' W 002°47'0 0.0
2018-Jun-27 03:30N 47°14' W 002°47'0 0.0
2018-Jun-27 03:00N 47°14' W 002°47'0 0.0
2018-Jun-27 02:30N 47°14' W 002°47'0 0.0
2018-Jun-27 02:00N 47°14' W 002°47'0 0.0
2018-Jun-27 01:30N 47°14' W 002°47'0 0.0
2018-Jun-27 01:00N 47°14' W 002°47'0 0.0
2018-Jun-27 00:31N 47°14' W 002°47'0 0.0
2018-Jun-27 00:00N 47°14' W 002°47'0 0.0
2018-Jun-26 23:31N 47°14' W 002°47'0 0.0
2018-Jun-26 23:01N 47°14' W 002°47'0 0.0
2018-Jun-26 22:30N 47°14' W 002°47'0 0.0
2018-Jun-26 21:59N 47°14' W 002°47'0 0.0
2018-Jun-26 21:30N 47°14' W 002°47'0 0.0
2018-Jun-26 21:00N 47°14' W 002°47'0 0.0
2018-Jun-26 20:31N 47°14' W 002°47'0 0.0
2018-Jun-26 19:59N 47°14' W 002°47'0 0.0
2018-Jun-26 19:31N 47°14' W 002°47'0 0.0
2018-Jun-26 19:01N 47°14' W 002°47'0 0.0
2018-Jun-26 18:30N 47°14' W 002°47'0 0.0
2018-Jun-26 18:00N 47°14' W 002°47'0 0.0
2018-Jun-26 17:31N 47°14' W 002°47'0 0.0
2018-Jun-26 17:00N 47°14' W 002°47'0 0.0
2018-Jun-26 16:00N 47°14' W 002°47'0 0.0
2018-Jun-26 15:30N 47°14' W 002°47'0 0.0
2018-Jun-26 15:00N 47°14' W 002°47'0 0.0
2018-Jun-26 14:30N 47°14' W 002°47'0 0.0
2018-Jun-26 14:00N 47°14' W 002°47'0 0.0
2018-Jun-26 13:30N 47°14' W 002°47'0 0.0
2018-Jun-26 13:00N 47°14' W 002°47'0 0.0
2018-Jun-26 12:30N 47°14' W 002°47'0 0.0
2018-Jun-26 12:00N 47°14' W 002°47'0 0.0
2018-Jun-26 11:30N 47°14' W 002°47'0 0.0
2018-Jun-26 11:00N 47°14' W 002°47'0 0.0
2018-Jun-26 10:30N 47°14' W 002°47'0 0.0
2018-Jun-26 10:00N 47°14' W 002°47'0 0.0
2018-Jun-26 09:30N 47°14' W 002°47'0 0.0
2018-Jun-26 09:00N 47°14' W 002°47'0 0.0
2018-Jun-26 08:28N 47°14' W 002°47'0 0.0
2018-Jun-26 08:00N 47°14' W 002°47'0 0.0
2018-Jun-26 07:30N 47°14' W 002°47'0 0.0
2018-Jun-26 07:00N 47°14' W 002°47'0 0.0
2018-Jun-26 06:30N 47°14' W 002°47'0 0.0
2018-Jun-26 06:00N 47°14' W 002°47'0 0.0
2018-Jun-26 05:30N 47°14' W 002°47'0 0.0
2018-Jun-26 05:00N 47°14' W 002°47'0 0.0
2018-Jun-26 04:30N 47°14' W 002°47'0 0.0
2018-Jun-26 03:59N 47°14' W 002°47'0 0.0
2018-Jun-26 03:30N 47°14' W 002°47'0 0.0
2018-Jun-26 03:00N 47°14' W 002°47'0 0.0
2018-Jun-26 02:29N 47°14' W 002°47'0 0.0
2018-Jun-26 02:00N 47°14' W 002°47'0 0.0
2018-Jun-26 01:30N 47°14' W 002°47'0 0.0
2018-Jun-26 01:00N 47°14' W 002°47'0 0.0
2018-Jun-26 00:29N 47°14' W 002°47'0 0.0
2018-Jun-26 00:00N 47°14' W 002°47'0 0.0
2018-Jun-25 23:30N 47°14' W 002°47'0 0.0
2018-Jun-25 23:00N 47°14' W 002°47'0 0.0
2018-Jun-25 22:30N 47°14' W 002°47'0 0.0
2018-Jun-25 22:00N 47°14' W 002°47'0 0.0
2018-Jun-25 21:29N 47°14' W 002°47'0 0.0
2018-Jun-25 21:00N 47°14' W 002°47'0 0.0
2018-Jun-25 20:31N 47°14' W 002°47'0 0.0
2018-Jun-25 20:00N 47°14' W 002°47'0 0.0
2018-Jun-25 19:30N 47°14' W 002°47'0 0.0
2018-Jun-25 19:01N 47°14' W 002°47'0 0.0
2018-Jun-25 18:30N 47°14' W 002°47'0 0.0
2018-Jun-25 18:00N 47°14' W 002°47'0 0.0
2018-Jun-25 17:30N 47°14' W 002°47'0 0.0
2018-Jun-25 17:00N 47°14' W 002°47'0 0.0
2018-Jun-25 16:31N 47°14' W 002°47'0 0.0
2018-Jun-25 16:00N 47°14' W 002°47'0 0.0
2018-Jun-25 15:29N 47°14' W 002°47'0 0.0
2018-Jun-25 15:00N 47°14' W 002°47'0 0.0
2018-Jun-25 14:30N 47°14' W 002°47'0 0.0
2018-Jun-25 14:01N 47°14' W 002°47'0 0.0
2018-Jun-25 13:30N 47°14' W 002°47'0 0.0
2018-Jun-25 13:00N 47°14' W 002°47'0 0.0
2018-Jun-25 12:30N 47°14' W 002°47'0 0.0
2018-Jun-25 12:00N 47°14' W 002°47'0 0.0
2018-Jun-25 11:30N 47°14' W 002°47'0 0.0
2018-Jun-25 11:00N 47°14' W 002°47'0 0.0
2018-Jun-25 10:31N 47°14' W 002°47'0 0.0
2018-Jun-25 10:00N 47°14' W 002°47'0 0.0
2018-Jun-25 09:30N 47°14' W 002°47'0 0.0
2018-Jun-25 08:58N 47°14' W 002°47'0 0.0
2018-Jun-25 08:30N 47°14' W 002°47'0 0.0
2018-Jun-25 08:00N 47°14' W 002°47'0 0.0
2018-Jun-25 07:30N 47°14' W 002°47'0 0.0
2018-Jun-25 07:00N 47°14' W 002°47'0 0.0
2018-Jun-25 06:30N 47°14' W 002°47'0 0.0
2018-Jun-25 05:59N 47°14' W 002°47'0 0.0
2018-Jun-25 05:30N 47°14' W 002°47'0 0.0
2018-Jun-25 05:00N 47°14' W 002°47'0 0.0
2018-Jun-25 04:30N 47°14' W 002°47'0 0.0
2018-Jun-25 04:00N 47°14' W 002°47'0 0.0
2018-Jun-25 03:30N 47°14' W 002°47'0 0.0
2018-Jun-25 03:00N 47°14' W 002°47'0 0.0
2018-Jun-25 02:30N 47°14' W 002°47'0 0.0
2018-Jun-25 02:00N 47°14' W 002°47'0 0.0
2018-Jun-25 01:30N 47°14' W 002°47'0 0.0
2018-Jun-25 01:00N 47°14' W 002°47'0 0.0
2018-Jun-25 00:29N 47°14' W 002°47'0 0.0
2018-Jun-25 00:00N 47°14' W 002°47'0 0.0
2018-Jun-24 23:30N 47°14' W 002°47'0 0.0
2018-Jun-24 23:00N 47°14' W 002°47'0 0.0
2018-Jun-24 22:30N 47°14' W 002°47'0 0.0
2018-Jun-24 22:00N 47°14' W 002°47'0 0.1
2018-Jun-24 21:30N 47°14' W 002°47'0 0.1
2018-Jun-24 21:01N 47°14' W 002°47'0 0.0
2018-Jun-24 20:30N 47°14' W 002°47'0 0.0
2018-Jun-24 20:00N 47°14' W 002°47'0 0.0
2018-Jun-24 19:30N 47°14' W 002°47'0 0.0
2018-Jun-24 19:00N 47°14' W 002°47'0 0.0
2018-Jun-24 18:30N 47°14' W 002°47'0 0.0
2018-Jun-24 18:00N 47°14' W 002°47'0 0.0
2018-Jun-24 17:30N 47°14' W 002°47'0 0.0
2018-Jun-24 16:59N 47°14' W 002°47'0 0.0
2018-Jun-24 16:31N 47°14' W 002°47'0 0.0
2018-Jun-24 16:01N 47°14' W 002°47'0 0.0
2018-Jun-24 15:30N 47°14' W 002°47'0 0.0
2018-Jun-24 15:00N 47°14' W 002°47'0 0.0
2018-Jun-24 14:31N 47°14' W 002°47'0 0.0
2018-Jun-24 13:59N 47°14' W 002°47'0 0.0
2018-Jun-24 13:31N 47°14' W 002°47'0 0.0
2018-Jun-24 13:01N 47°14' W 002°47'0 0.0
2018-Jun-24 12:30N 47°14' W 002°47'0 0.0
2018-Jun-24 12:00N 47°14' W 002°47'0 0.0
2018-Jun-24 11:30N 47°14' W 002°47'0 0.0
2018-Jun-24 11:01N 47°14' W 002°47'0 0.0
2018-Jun-24 10:29N 47°14' W 002°47'0 0.0
2018-Jun-24 10:00N 47°14' W 002°47'0 0.0
2018-Jun-24 09:30N 47°14' W 002°47'0 0.0
2018-Jun-24 09:00N 47°14' W 002°47'0 0.0
2018-Jun-24 08:30N 47°14' W 002°47'0 0.0
2018-Jun-24 08:00N 47°14' W 002°47'0 0.0
2018-Jun-24 07:31N 47°14' W 002°47'0 0.0
2018-Jun-24 07:01N 47°14' W 002°47'0 0.0
2018-Jun-24 06:30N 47°14' W 002°47'0 0.0
2018-Jun-24 06:00N 47°14' W 002°47'0 0.0
2018-Jun-24 05:30N 47°14' W 002°47'0 0.0
2018-Jun-24 04:59N 47°14' W 002°47'0 0.0
2018-Jun-24 04:29N 47°14' W 002°47'0 0.0
2018-Jun-24 04:00N 47°14' W 002°47'0 0.0
2018-Jun-24 03:30N 47°14' W 002°47'0 0.0
2018-Jun-24 03:00N 47°14' W 002°47'0 0.0
2018-Jun-24 02:29N 47°14' W 002°47'0 0.0
2018-Jun-24 02:00N 47°14' W 002°47'0 0.0
2018-Jun-24 01:29N 47°14' W 002°47'0 0.0
2018-Jun-24 01:00N 47°14' W 002°47'0 0.0
2018-Jun-24 00:30N 47°14' W 002°47'0 0.1
2018-Jun-24 00:00N 47°14' W 002°47'0 0.1
2018-Jun-23 23:30N 47°14' W 002°47'0 0.0
2018-Jun-23 23:00N 47°14' W 002°47'0 0.0
2018-Jun-23 22:30N 47°14' W 002°47'0 0.6
2018-Jun-23 22:00N 47°15' W 002°47'0 0.0
2018-Jun-23 21:28N 47°15' W 002°47'0 0.0
2018-Jun-23 21:01N 47°15' W 002°47'0 0.0
2018-Jun-23 20:30N 47°15' W 002°47'0 0.0
2018-Jun-23 20:00N 47°15' W 002°47'0 0.1
2018-Jun-23 19:29N 47°15' W 002°47'1 1.9
2018-Jun-23 19:00N 47°14' W 002°49'0 0.1
2018-Jun-23 18:30N 47°14' W 002°48'18 8.4
2018-Jun-23 16:23N 47°05' W 002°26'410.7
2018-Jun-23 16:00N 47°08' W 002°22'510.2
2018-Jun-23 15:31N 47°12' W 002°18'510.4
2018-Jun-23 15:00N 47°16' W 002°13'1 1.2
2018-Jun-23 14:19N 47°16' W 002°12'0 0.2
2018-Jun-23 13:58N 47°16' W 002°12'0 0.9
2018-Jun-23 13:28N 47°17' W 002°12'0 0.0
2018-Jun-23 06:13N 47°17' W 002°12'0 0.0
2018-Jun-23 05:52N 47°17' W 002°12'0 0.0
2018-Jun-23 05:28N 47°17' W 002°12'0 0.0
2018-Jun-23 04:52N 47°17' W 002°12'0 0.0
2018-Jun-23 04:28N 47°17' W 002°12'0 0.0
2018-Jun-23 03:58N 47°17' W 002°12'0 0.0
2018-Jun-23 02:46N 47°17' W 002°12'0 0.0
2018-Jun-23 02:25N 47°17' W 002°12'0 0.0
2018-Jun-23 01:55N 47°17' W 002°12'0 0.0
2018-Jun-23 01:25N 47°17' W 002°12'0 0.0
2018-Jun-23 00:49N 47°17' W 002°12'0 0.0
2018-Jun-23 00:25N 47°17' W 002°12'0 0.0
2018-Jun-22 23:55N 47°17' W 002°12'0 0.0
2018-Jun-22 21:58N 47°17' W 002°12'0 0.0
2018-Jun-22 21:22N 47°17' W 002°12'  
Track history (hours):
 
Tides and Currents Weather Stations Pressure Air Temp Water Temp Dewpoint Dewpoint Depression Visibility Wind Speed Wind Dir Waves Ship Positions

Ariadne

Last reported at 2018-Jul-02 12:06 UTC. Time now 2018-Jul-17 14:55 UTC.
Position N 54°36' W 000°25'.
Warning: this ship's position is 15 days out of date.

Length 130 m; draft 6.5 m.

Type: Other ship. MMSI: 210594000.

Date/timePositionNaut miles runAvg speedWind from/ knotsBaromVisibWave heightAir tempDewpointWater temp
2018-Jul-02 12:06N 54°36' W 000°25'1 6.9
2018-Jul-02 12:00N 54°36' W 000°24'4 7.1
2018-Jul-02 11:30N 54°34' W 000°18'4 7.2
2018-Jul-02 11:00N 54°32' W 000°13'4 8.6
2018-Jul-02 10:30N 54°30' W 000°07'5 8.3
2018-Jul-02 09:57N 54°28' E 000°00'4 7.8
2018-Jul-02 09:30N 54°26' E 000°06'4 8.3
2018-Jul-02 09:00N 54°24' E 000°12'27 9.8
2018-Jul-02 06:15N 54°11' E 000°53'311.1
2018-Jul-02 06:01N 54°10' E 000°57'611.2
2018-Jul-02 05:30N 54°07' E 001°05'611.5
2018-Jul-02 05:00N 54°04' E 001°14'611.6
2018-Jul-02 04:30N 54°01' E 001°22'611.9
2018-Jul-02 04:00N 53°56' E 001°27'612.2
2018-Jul-02 03:30N 53°51' E 001°33'612.4
2018-Jul-02 03:00N 53°46' E 001°38'612.1
2018-Jul-02 02:30N 53°43' E 001°48'712.5
2018-Jul-02 01:57N 53°42' E 001°59'612.3
2018-Jul-02 01:30N 53°40' E 002°08'712.2
2018-Jul-02 00:57N 53°38' E 002°19'511.7
2018-Jul-02 00:30N 53°36' E 002°27'611.4
2018-Jul-02 00:00N 53°33' E 002°34'611.1
2018-Jul-01 23:30N 53°30' E 002°42'610.9
2018-Jul-01 23:00N 53°26' E 002°50'510.1
2018-Jul-01 22:30N 53°22' E 002°55'510.2
2018-Jul-01 22:00N 53°18' E 002°51'510.5
2018-Jul-01 21:30N 53°14' E 002°46'510.7
2018-Jul-01 21:00N 53°09' E 002°41'510.5
2018-Jul-01 20:30N 53°04' E 002°39'611.1
2018-Jul-01 20:00N 52°59' E 002°40'611.7
2018-Jul-01 19:30N 52°53' E 002°40'612.1
2018-Jul-01 19:00N 52°47' E 002°40'612.4
2018-Jul-01 18:30N 52°41' E 002°40'612.8
2018-Jul-01 18:00N 52°34' E 002°40'713.0
2018-Jul-01 17:30N 52°28' E 002°40'713.2
2018-Jul-01 17:00N 52°21' E 002°39'713.2
2018-Jul-01 16:30N 52°15' E 002°39'713.1
2018-Jul-01 16:00N 52°08' E 002°38'713.1
2018-Jul-01 15:30N 52°02' E 002°37'612.7
2018-Jul-01 15:00N 51°55' E 002°37'612.5
2018-Jul-01 14:30N 51°49' E 002°36'611.8
2018-Jul-01 14:00N 51°43' E 002°33'611.9
2018-Jul-01 13:30N 51°39' E 002°26'611.7
2018-Jul-01 13:00N 51°35' E 002°20'611.2
2018-Jul-01 12:30N 51°31' E 002°14'510.8
2018-Jul-01 12:00N 51°27' E 002°08'510.4
2018-Jul-01 11:30N 51°23' E 002°02'5 9.9
2018-Jul-01 11:00N 51°19' E 001°57'5 9.1
2018-Jul-01 10:30N 51°15' E 001°53'4 8.6
2018-Jul-01 10:00N 51°12' E 001°48'4 8.1
2018-Jul-01 09:30N 51°09' E 001°44'4 8.1
2018-Jul-01 09:00N 51°06' E 001°40'5 8.3
2018-Jul-01 08:26N 51°02' E 001°35'4 8.7
2018-Jul-01 08:00N 50°59' E 001°32'4 8.9
2018-Jul-01 07:30N 50°56' E 001°28'5 9.1
2018-Jul-01 07:00N 50°51' E 001°26'5 9.9
2018-Jul-01 06:30N 50°46' E 001°24'510.1
2018-Jul-01 06:00N 50°42' E 001°21'510.4
2018-Jul-01 05:30N 50°38' E 001°15'510.8
2018-Jul-01 05:00N 50°35' E 001°09'610.7
2018-Jul-01 04:24N 50°31' E 001°01'410.6
2018-Jul-01 04:00N 50°29' E 000°55'2710.8
2018-Jul-01 01:31N 50°20' E 000°15'110.9
2018-Jul-01 01:26N 50°20' E 000°14'511.2
2018-Jul-01 01:00N 50°19' E 000°06'1011.7
2018-Jul-01 00:12N 50°16' W 000°08'512.3
2018-Jun-30 23:49N 50°15' W 000°15'412.8
2018-Jun-30 23:30N 50°13' W 000°21'913.3
2018-Jun-30 22:48N 50°11' W 000°35'513.7
2018-Jun-30 22:26N 50°10' W 000°42'614.0
2018-Jun-30 22:00N 50°09' W 000°52'713.9
2018-Jun-30 21:30N 50°07' W 001°02'814.1
2018-Jun-30 20:58N 50°05' W 001°14'814.0
2018-Jun-30 20:24N 50°03' W 001°26'513.7
2018-Jun-30 20:00N 50°02' W 001°34'1512.9
2018-Jun-30 18:51N 49°59' W 001°57'412.0
2018-Jun-30 18:30N 49°58' W 002°03'711.4
2018-Jun-30 17:55N 49°56' W 002°13'410.6
2018-Jun-30 17:30N 49°55' W 002°20'610.0
2018-Jun-30 16:55N 49°53' W 002°28'6 9.5
2018-Jun-30 16:18N 49°52' W 002°37'3 9.1
2018-Jun-30 15:59N 49°51' W 002°41'150 9.0
2018-Jun-29 23:16N 48°07' W 005°26'310.8
2018-Jun-29 23:00N 48°04' W 005°24'16 9.8
2018-Jun-29 21:22N 47°52' W 005°09'710.6
2018-Jun-29 20:40N 47°48' W 004°59'5510.1
2018-Jun-29 15:12N 47°21' W 003°48'210.0
2018-Jun-29 15:00N 47°20' W 003°45'510.3
2018-Jun-29 14:30N 47°18' W 003°39'910.4
2018-Jun-29 13:38N 47°13' W 003°27'110.3
2018-Jun-29 13:30N 47°13' W 003°25'41 9.5
2018-Jun-29 09:14N 47°05' W 002°27'2 9.5
2018-Jun-29 09:00N 47°06' W 002°24'4 7.5
2018-Jun-29 08:30N 47°09' W 002°20'612.3
2018-Jun-29 08:00N 47°14' W 002°16'610.5
2018-Jun-29 07:28N 47°18' W 002°09'0 0.0
2018-Jun-29 06:41N 47°18' W 002°09'0 0.0
2018-Jun-29 06:25N 47°18' W 002°09'0 0.0
2018-Jun-29 05:58N 47°18' W 002°09'0 0.0
2018-Jun-29 04:31N 47°18' W 002°09'0 0.0
2018-Jun-29 04:25N 47°18' W 002°09'0 0.0
2018-Jun-29 03:43N 47°18' W 002°09'0 0.0
2018-Jun-29 01:34N 47°18' W 002°09'0 0.0
2018-Jun-29 01:28N 47°18' W 002°09'0 0.0
2018-Jun-29 00:55N 47°18' W 002°09'0 0.0
2018-Jun-29 00:28N 47°18' W 002°09'0 0.0
2018-Jun-28 23:58N 47°18' W 002°09'0 0.0
2018-Jun-28 23:25N 47°18' W 002°09'0 0.0
2018-Jun-28 22:58N 47°18' W 002°09'0 0.0
2018-Jun-28 22:10N 47°18' W 002°09'0 0.0
2018-Jun-28 21:28N 47°18' W 002°09'0 0.0
2018-Jun-28 05:46N 47°18' W 002°09'0 0.0
2018-Jun-28 05:16N 47°18' W 002°09'0 0.0
2018-Jun-28 04:46N 47°18' W 002°09'0 0.0
2018-Jun-28 04:22N 47°18' W 002°09'0 0.0
2018-Jun-28 03:58N 47°18' W 002°09'0 0.0
2018-Jun-28 03:16N 47°18' W 002°09'0 0.0
2018-Jun-28 02:49N 47°18' W 002°09'0 0.0
2018-Jun-28 01:19N 47°18' W 002°09'0 0.0
2018-Jun-28 00:52N 47°18' W 002°09'0 0.0
2018-Jun-28 00:28N 47°18' W 002°09'0 0.0
2018-Jun-27 23:52N 47°18' W 002°09'0 0.0
2018-Jun-27 23:28N 47°18' W 002°09'0 0.0
2018-Jun-27 22:52N 47°18' W 002°09'0 0.0
2018-Jun-27 22:28N 47°18' W 002°09'0 0.0
2018-Jun-27 21:58N 47°18' W 002°09'0 0.0
2018-Jun-27 21:28N 47°18' W 002°09'0 0.0
2018-Jun-27 20:58N 47°18' W 002°09'0 0.0
2018-Jun-27 20:28N 47°18' W 002°09'0 0.0
2018-Jun-27 19:58N 47°18' W 002°09'0 0.0
2018-Jun-27 18:58N 47°18' W 002°09'0 0.0
2018-Jun-27 18:28N 47°18' W 002°09'0 0.0
2018-Jun-27 16:14N 47°18' W 002°09'0 0.3
2018-Jun-27 15:58N 47°18' W 002°10'2 4.7
2018-Jun-27 15:29N 47°16' W 002°12'611.0
2018-Jun-27 14:57N 47°12' W 002°18'11 8.3
2018-Jun-27 13:39N 47°05' W 002°30'3 7.8
2018-Jun-27 13:20N 47°05' W 002°34'3 7.4
2018-Jun-27 12:57N 47°06' W 002°38'3 6.2
2018-Jun-27 12:30N 47°06' W 002°42'3 5.7
2018-Jun-27 12:00N 47°08' W 002°45'3 5.8
2018-Jun-27 11:30N 47°11' W 002°47'3 5.7
2018-Jun-27 11:00N 47°13' W 002°48'1 2.3
2018-Jun-27 10:30N 47°14' W 002°47'0 0.1
2018-Jun-27 10:00N 47°14' W 002°47'0 0.4
2018-Jun-27 09:30N 47°14' W 002°47'0 0.2
2018-Jun-27 08:58N 47°14' W 002°47'0 0.2
2018-Jun-27 08:30N 47°14' W 002°47'0 0.0
2018-Jun-27 07:59N 47°14' W 002°47'0 0.0
2018-Jun-27 07:30N 47°14' W 002°47'0 0.1
2018-Jun-27 07:00N 47°14' W 002°47'0 0.0
2018-Jun-27 06:30N 47°14' W 002°47'0 0.0
2018-Jun-27 06:01N 47°14' W 002°47'0 0.0
2018-Jun-27 05:30N 47°14' W 002°47'0 0.0
2018-Jun-27 05:01N 47°14' W 002°47'0 0.0
2018-Jun-27 04:30N 47°14' W 002°47'0 0.0
2018-Jun-27 04:00N 47°14' W 002°47'0 0.0
2018-Jun-27 03:30N 47°14' W 002°47'0 0.0
2018-Jun-27 03:00N 47°14' W 002°47'0 0.0
2018-Jun-27 02:30N 47°14' W 002°47'0 0.0
2018-Jun-27 02:00N 47°14' W 002°47'0 0.0
2018-Jun-27 01:30N 47°14' W 002°47'0 0.0
2018-Jun-27 01:00N 47°14' W 002°47'0 0.0
2018-Jun-27 00:31N 47°14' W 002°47'0 0.0
2018-Jun-27 00:00N 47°14' W 002°47'0 0.0
2018-Jun-26 23:31N 47°14' W 002°47'0 0.0
2018-Jun-26 23:01N 47°14' W 002°47'0 0.0
2018-Jun-26 22:30N 47°14' W 002°47'0 0.0
2018-Jun-26 21:59N 47°14' W 002°47'0 0.0
2018-Jun-26 21:30N 47°14' W 002°47'0 0.0
2018-Jun-26 21:00N 47°14' W 002°47'0 0.0
2018-Jun-26 20:31N 47°14' W 002°47'0 0.0
2018-Jun-26 19:59N 47°14' W 002°47'0 0.0
2018-Jun-26 19:31N 47°14' W 002°47'0 0.0
2018-Jun-26 19:01N 47°14' W 002°47'0 0.0
2018-Jun-26 18:30N 47°14' W 002°47'0 0.0
2018-Jun-26 18:00N 47°14' W 002°47'0 0.0
2018-Jun-26 17:31N 47°14' W 002°47'0 0.0
2018-Jun-26 17:00N 47°14' W 002°47'0 0.0
2018-Jun-26 16:00N 47°14' W 002°47'0 0.0
2018-Jun-26 15:30N 47°14' W 002°47'0 0.0
2018-Jun-26 15:00N 47°14' W 002°47'0 0.0
2018-Jun-26 14:30N 47°14' W 002°47'0 0.0
2018-Jun-26 14:00N 47°14' W 002°47'0 0.0
2018-Jun-26 13:30N 47°14' W 002°47'0 0.0
2018-Jun-26 13:00N 47°14' W 002°47'0 0.0
2018-Jun-26 12:30N 47°14' W 002°47'0 0.0
2018-Jun-26 12:00N 47°14' W 002°47'0 0.0
2018-Jun-26 11:30N 47°14' W 002°47'0 0.0
2018-Jun-26 11:00N 47°14' W 002°47'0 0.0
2018-Jun-26 10:30N 47°14' W 002°47'0 0.0
2018-Jun-26 10:00N 47°14' W 002°47'0 0.0
2018-Jun-26 09:30N 47°14' W 002°47'0 0.0
2018-Jun-26 09:00N 47°14' W 002°47'0 0.0
2018-Jun-26 08:28N 47°14' W 002°47'0 0.0
2018-Jun-26 08:00N 47°14' W 002°47'0 0.0
2018-Jun-26 07:30N 47°14' W 002°47'0 0.0
2018-Jun-26 07:00N 47°14' W 002°47'0 0.0
2018-Jun-26 06:30N 47°14' W 002°47'0 0.0
2018-Jun-26 06:00N 47°14' W 002°47'0 0.0
2018-Jun-26 05:30N 47°14' W 002°47'0 0.0
2018-Jun-26 05:00N 47°14' W 002°47'0 0.0
2018-Jun-26 04:30N 47°14' W 002°47'0 0.0
2018-Jun-26 03:59N 47°14' W 002°47'0 0.0
2018-Jun-26 03:30N 47°14' W 002°47'0 0.0
2018-Jun-26 03:00N 47°14' W 002°47'0 0.0
2018-Jun-26 02:29N 47°14' W 002°47'0 0.0
2018-Jun-26 02:00N 47°14' W 002°47'0 0.0
2018-Jun-26 01:30N 47°14' W 002°47'0 0.0
2018-Jun-26 01:00N 47°14' W 002°47'0 0.0
2018-Jun-26 00:29N 47°14' W 002°47'0 0.0
2018-Jun-26 00:00N 47°14' W 002°47'0 0.0
2018-Jun-25 23:30N 47°14' W 002°47'0 0.0
2018-Jun-25 23:00N 47°14' W 002°47'0 0.0
2018-Jun-25 22:30N 47°14' W 002°47'0 0.0
2018-Jun-25 22:00N 47°14' W 002°47'0 0.0
2018-Jun-25 21:29N 47°14' W 002°47'0 0.0
2018-Jun-25 21:00N 47°14' W 002°47'0 0.0
2018-Jun-25 20:31N 47°14' W 002°47'0 0.0
2018-Jun-25 20:00N 47°14' W 002°47'0 0.0
2018-Jun-25 19:30N 47°14' W 002°47'0 0.0
2018-Jun-25 19:01N 47°14' W 002°47'0 0.0
2018-Jun-25 18:30N 47°14' W 002°47'0 0.0
2018-Jun-25 18:00N 47°14' W 002°47'0 0.0
2018-Jun-25 17:30N 47°14' W 002°47'0 0.0
2018-Jun-25 17:00N 47°14' W 002°47'0 0.0
2018-Jun-25 16:31N 47°14' W 002°47'0 0.0
2018-Jun-25 16:00N 47°14' W 002°47'0 0.0
2018-Jun-25 15:29N 47°14' W 002°47'0 0.0
2018-Jun-25 15:00N 47°14' W 002°47'0 0.0
2018-Jun-25 14:30N 47°14' W 002°47'0 0.0
2018-Jun-25 14:01N 47°14' W 002°47'0 0.0
2018-Jun-25 13:30N 47°14' W 002°47'0 0.0
2018-Jun-25 13:00N 47°14' W 002°47'0 0.0
2018-Jun-25 12:30N 47°14' W 002°47'0 0.0
2018-Jun-25 12:00N 47°14' W 002°47'0 0.0
2018-Jun-25 11:30N 47°14' W 002°47'0 0.0
2018-Jun-25 11:00N 47°14' W 002°47'0 0.0
2018-Jun-25 10:31N 47°14' W 002°47'0 0.0
2018-Jun-25 10:00N 47°14' W 002°47'0 0.0
2018-Jun-25 09:30N 47°14' W 002°47'0 0.0
2018-Jun-25 08:58N 47°14' W 002°47'0 0.0
2018-Jun-25 08:30N 47°14' W 002°47'0 0.0
2018-Jun-25 08:00N 47°14' W 002°47'0 0.0
2018-Jun-25 07:30N 47°14' W 002°47'0 0.0
2018-Jun-25 07:00N 47°14' W 002°47'0 0.0
2018-Jun-25 06:30N 47°14' W 002°47'0 0.0
2018-Jun-25 05:59N 47°14' W 002°47'0 0.0
2018-Jun-25 05:30N 47°14' W 002°47'0 0.0
2018-Jun-25 05:00N 47°14' W 002°47'0 0.0
2018-Jun-25 04:30N 47°14' W 002°47'0 0.0
2018-Jun-25 04:00N 47°14' W 002°47'0 0.0
2018-Jun-25 03:30N 47°14' W 002°47'0 0.0
2018-Jun-25 03:00N 47°14' W 002°47'0 0.0
2018-Jun-25 02:30N 47°14' W 002°47'0 0.0
2018-Jun-25 02:00N 47°14' W 002°47'0 0.0
2018-Jun-25 01:30N 47°14' W 002°47'0 0.0
2018-Jun-25 01:00N 47°14' W 002°47'0 0.0
2018-Jun-25 00:29N 47°14' W 002°47'0 0.0
2018-Jun-25 00:00N 47°14' W 002°47'0 0.0
2018-Jun-24 23:30N 47°14' W 002°47'0 0.0
2018-Jun-24 23:00N 47°14' W 002°47'0 0.0
2018-Jun-24 22:30N 47°14' W 002°47'0 0.0
2018-Jun-24 22:00N 47°14' W 002°47'0 0.1
2018-Jun-24 21:30N 47°14' W 002°47'0 0.1
2018-Jun-24 21:01N 47°14' W 002°47'0 0.0
2018-Jun-24 20:30N 47°14' W 002°47'0 0.0
2018-Jun-24 20:00N 47°14' W 002°47'0 0.0
2018-Jun-24 19:30N 47°14' W 002°47'0 0.0
2018-Jun-24 19:00N 47°14' W 002°47'0 0.0
2018-Jun-24 18:30N 47°14' W 002°47'0 0.0
2018-Jun-24 18:00N 47°14' W 002°47'0 0.0
2018-Jun-24 17:30N 47°14' W 002°47'0 0.0
2018-Jun-24 16:59N 47°14' W 002°47'0 0.0
2018-Jun-24 16:31N 47°14' W 002°47'0 0.0
2018-Jun-24 16:01N 47°14' W 002°47'0 0.0
2018-Jun-24 15:30N 47°14' W 002°47'0 0.0
2018-Jun-24 15:00N 47°14' W 002°47'0 0.0
2018-Jun-24 14:31N 47°14' W 002°47'0 0.0
2018-Jun-24 13:59N 47°14' W 002°47'0 0.0
2018-Jun-24 13:31N 47°14' W 002°47'0 0.0
2018-Jun-24 13:01N 47°14' W 002°47'0 0.0
2018-Jun-24 12:30N 47°14' W 002°47'0 0.0
2018-Jun-24 12:00N 47°14' W 002°47'0 0.0
2018-Jun-24 11:30N 47°14' W 002°47'0 0.0
2018-Jun-24 11:01N 47°14' W 002°47'0 0.0
2018-Jun-24 10:29N 47°14' W 002°47'0 0.0
2018-Jun-24 10:00N 47°14' W 002°47'0 0.0
2018-Jun-24 09:30N 47°14' W 002°47'0 0.0
2018-Jun-24 09:00N 47°14' W 002°47'0 0.0
2018-Jun-24 08:30N 47°14' W 002°47'0 0.0
2018-Jun-24 08:00N 47°14' W 002°47'0 0.0
2018-Jun-24 07:31N 47°14' W 002°47'0 0.0
2018-Jun-24 07:01N 47°14' W 002°47'0 0.0
2018-Jun-24 06:30N 47°14' W 002°47'0 0.0
2018-Jun-24 06:00N 47°14' W 002°47'0 0.0
2018-Jun-24 05:30N 47°14' W 002°47'0 0.0
2018-Jun-24 04:59N 47°14' W 002°47'0 0.0
2018-Jun-24 04:29N 47°14' W 002°47'0 0.0
2018-Jun-24 04:00N 47°14' W 002°47'0 0.0
2018-Jun-24 03:30N 47°14' W 002°47'0 0.0
2018-Jun-24 03:00N 47°14' W 002°47'0 0.0
2018-Jun-24 02:29N 47°14' W 002°47'0 0.0
2018-Jun-24 02:00N 47°14' W 002°47'0 0.0
2018-Jun-24 01:29N 47°14' W 002°47'0 0.0
2018-Jun-24 01:00N 47°14' W 002°47'0 0.0
2018-Jun-24 00:30N 47°14' W 002°47'0 0.1
2018-Jun-24 00:00N 47°14' W 002°47'0 0.1
2018-Jun-23 23:30N 47°14' W 002°47'0 0.0
2018-Jun-23 23:00N 47°14' W 002°47'0 0.0
2018-Jun-23 22:30N 47°14' W 002°47'0 0.6
2018-Jun-23 22:00N 47°15' W 002°47'0 0.0
2018-Jun-23 21:28N 47°15' W 002°47'0 0.0
2018-Jun-23 21:01N 47°15' W 002°47'0 0.0
2018-Jun-23 20:30N 47°15' W 002°47'0 0.0
2018-Jun-23 20:00N 47°15' W 002°47'0 0.1
2018-Jun-23 19:29N 47°15' W 002°47'1 1.9
2018-Jun-23 19:00N 47°14' W 002°49'0 0.1
2018-Jun-23 18:30N 47°14' W 002°48'18 8.4
2018-Jun-23 16:23N 47°05' W 002°26'410.7
2018-Jun-23 16:00N 47°08' W 002°22'510.2
2018-Jun-23 15:31N 47°12' W 002°18'510.4
2018-Jun-23 15:00N 47°16' W 002°13'1 1.2
2018-Jun-23 14:19N 47°16' W 002°12'0 0.2
2018-Jun-23 13:58N 47°16' W 002°12'0 0.9
2018-Jun-23 13:28N 47°17' W 002°12'0 0.0
2018-Jun-23 06:13N 47°17' W 002°12'0 0.0
2018-Jun-23 05:52N 47°17' W 002°12'0 0.0
2018-Jun-23 05:28N 47°17' W 002°12'0 0.0
2018-Jun-23 04:52N 47°17' W 002°12'0 0.0
2018-Jun-23 04:28N 47°17' W 002°12'0 0.0
2018-Jun-23 03:58N 47°17' W 002°12'0 0.0
2018-Jun-23 02:46N 47°17' W 002°12'0 0.0
2018-Jun-23 02:25N 47°17' W 002°12'0 0.0
2018-Jun-23 01:55N 47°17' W 002°12'0 0.0
2018-Jun-23 01:25N 47°17' W 002°12'0 0.0
2018-Jun-23 00:49N 47°17' W 002°12'0 0.0
2018-Jun-23 00:25N 47°17' W 002°12'0 0.0
2018-Jun-22 23:55N 47°17' W 002°12'0 0.0
2018-Jun-22 21:58N 47°17' W 002°12'0 0.0
2018-Jun-22 21:22N 47°17' W 002°12'  

Dump ship's entire track history